sensor_id;sensor_type;location;lat;lon;timestamp;P1;durP1;ratioP1;P2;durP2;ratioP2
31114;SDS011;17764;47.152;9.828;2022-07-17T00:00:41;3.60;;;2.17;;
31114;SDS011;17764;47.152;9.828;2022-07-17T00:03:10;2.75;;;2.10;;
31114;SDS011;17764;47.152;9.828;2022-07-17T00:05:37;3.70;;;2.13;;
31114;SDS011;17764;47.152;9.828;2022-07-17T00:08:04;2.53;;;2.00;;
31114;SDS011;17764;47.152;9.828;2022-07-17T00:10:31;3.85;;;2.28;;
31114;SDS011;17764;47.152;9.828;2022-07-17T00:12:57;2.28;;;2.08;;
31114;SDS011;17764;47.152;9.828;2022-07-17T00:15:23;2.25;;;2.05;;
31114;SDS011;17764;47.152;9.828;2022-07-17T00:17:49;2.42;;;2.10;;
31114;SDS011;17764;47.152;9.828;2022-07-17T00:20:15;2.22;;;2.03;;
31114;SDS011;17764;47.152;9.828;2022-07-17T00:22:41;2.70;;;2.13;;
31114;SDS011;17764;47.152;9.828;2022-07-17T00:25:08;2.92;;;2.00;;
31114;SDS011;17764;47.152;9.828;2022-07-17T00:27:34;2.72;;;2.40;;
31114;SDS011;17764;47.152;9.828;2022-07-17T00:30:00;2.25;;;2.00;;
31114;SDS011;17764;47.152;9.828;2022-07-17T00:32:26;3.33;;;2.28;;
31114;SDS011;17764;47.152;9.828;2022-07-17T00:34:53;4.65;;;2.67;;
31114;SDS011;17764;47.152;9.828;2022-07-17T00:37:19;3.95;;;2.38;;
31114;SDS011;17764;47.152;9.828;2022-07-17T00:39:45;3.47;;;1.98;;
31114;SDS011;17764;47.152;9.828;2022-07-17T00:42:11;3.25;;;2.58;;
31114;SDS011;17764;47.152;9.828;2022-07-17T00:44:39;2.90;;;2.22;;
31114;SDS011;17764;47.152;9.828;2022-07-17T00:47:15;3.47;;;2.20;;
31114;SDS011;17764;47.152;9.828;2022-07-17T00:49:43;2.55;;;2.35;;
31114;SDS011;17764;47.152;9.828;2022-07-17T00:52:10;3.13;;;2.17;;
31114;SDS011;17764;47.152;9.828;2022-07-17T00:54:40;3.38;;;2.22;;
31114;SDS011;17764;47.152;9.828;2022-07-17T00:57:08;3.05;;;2.25;;
31114;SDS011;17764;47.152;9.828;2022-07-17T00:59:35;2.55;;;2.10;;
31114;SDS011;17764;47.152;9.828;2022-07-17T01:02:05;2.58;;;1.92;;
31114;SDS011;17764;47.152;9.828;2022-07-17T01:04:32;3.42;;;2.58;;
31114;SDS011;17764;47.152;9.828;2022-07-17T01:06:58;2.55;;;2.30;;
31114;SDS011;17764;47.152;9.828;2022-07-17T01:09:26;2.40;;;2.10;;
31114;SDS011;17764;47.152;9.828;2022-07-17T01:11:52;2.80;;;2.47;;
31114;SDS011;17764;47.152;9.828;2022-07-17T01:14:18;2.95;;;2.22;;
31114;SDS011;17764;47.152;9.828;2022-07-17T01:16:44;4.40;;;2.20;;
31114;SDS011;17764;47.152;9.828;2022-07-17T01:19:10;3.70;;;2.50;;
31114;SDS011;17764;47.152;9.828;2022-07-17T01:21:44;2.30;;;2.05;;
31114;SDS011;17764;47.152;9.828;2022-07-17T01:24:10;2.33;;;2.13;;
31114;SDS011;17764;47.152;9.828;2022-07-17T01:26:37;2.58;;;2.33;;
31114;SDS011;17764;47.152;9.828;2022-07-17T01:29:03;4.10;;;2.47;;
31114;SDS011;17764;47.152;9.828;2022-07-17T01:31:29;2.50;;;2.30;;
31114;SDS011;17764;47.152;9.828;2022-07-17T01:33:55;2.17;;;1.98;;
31114;SDS011;17764;47.152;9.828;2022-07-17T01:36:22;3.47;;;2.42;;
31114;SDS011;17764;47.152;9.828;2022-07-17T01:38:49;2.72;;;2.25;;
31114;SDS011;17764;47.152;9.828;2022-07-17T01:41:15;2.28;;;2.08;;
31114;SDS011;17764;47.152;9.828;2022-07-17T01:43:41;3.00;;;2.40;;
31114;SDS011;17764;47.152;9.828;2022-07-17T01:46:07;2.70;;;2.20;;
31114;SDS011;17764;47.152;9.828;2022-07-17T01:48:33;3.33;;;2.13;;
31114;SDS011;17764;47.152;9.828;2022-07-17T01:50:59;2.55;;;2.00;;
31114;SDS011;17764;47.152;9.828;2022-07-17T01:53:25;2.78;;;2.20;;
31114;SDS011;17764;47.152;9.828;2022-07-17T01:55:51;3.47;;;2.28;;
31114;SDS011;17764;47.152;9.828;2022-07-17T01:58:17;2.30;;;2.10;;
31114;SDS011;17764;47.152;9.828;2022-07-17T02:00:43;2.85;;;2.30;;
31114;SDS011;17764;47.152;9.828;2022-07-17T02:03:09;3.75;;;2.50;;
31114;SDS011;17764;47.152;9.828;2022-07-17T02:05:35;2.63;;;2.22;;
31114;SDS011;17764;47.152;9.828;2022-07-17T02:08:01;2.40;;;2.20;;
31114;SDS011;17764;47.152;9.828;2022-07-17T02:10:27;4.07;;;2.40;;
31114;SDS011;17764;47.152;9.828;2022-07-17T02:12:53;3.63;;;2.42;;
31114;SDS011;17764;47.152;9.828;2022-07-17T02:15:20;2.50;;;2.28;;
31114;SDS011;17764;47.152;9.828;2022-07-17T02:17:46;4.43;;;2.40;;
31114;SDS011;17764;47.152;9.828;2022-07-17T02:20:12;5.35;;;2.42;;
31114;SDS011;17764;47.152;9.828;2022-07-17T02:22:38;4.85;;;2.40;;
31114;SDS011;17764;47.152;9.828;2022-07-17T02:25:05;2.63;;;2.17;;
31114;SDS011;17764;47.152;9.828;2022-07-17T02:27:31;2.47;;;2.28;;
31114;SDS011;17764;47.152;9.828;2022-07-17T02:29:57;4.18;;;2.40;;
31114;SDS011;17764;47.152;9.828;2022-07-17T02:32:23;2.25;;;2.05;;
31114;SDS011;17764;47.152;9.828;2022-07-17T02:34:49;2.15;;;1.95;;
31114;SDS011;17764;47.152;9.828;2022-07-17T02:37:16;2.75;;;2.25;;
31114;SDS011;17764;47.152;9.828;2022-07-17T02:39:42;2.78;;;2.30;;
31114;SDS011;17764;47.152;9.828;2022-07-17T02:42:18;2.00;;;1.75;;
31114;SDS011;17764;47.152;9.828;2022-07-17T02:44:44;2.40;;;2.20;;
31114;SDS011;17764;47.152;9.828;2022-07-17T02:47:11;4.40;;;2.70;;
31114;SDS011;17764;47.152;9.828;2022-07-17T02:49:37;3.50;;;2.88;;
31114;SDS011;17764;47.152;9.828;2022-07-17T02:52:03;3.72;;;2.70;;
31114;SDS011;17764;47.152;9.828;2022-07-17T02:54:29;2.70;;;2.50;;
31114;SDS011;17764;47.152;9.828;2022-07-17T02:56:55;2.55;;;2.28;;
31114;SDS011;17764;47.152;9.828;2022-07-17T02:59:21;2.75;;;2.25;;
31114;SDS011;17764;47.152;9.828;2022-07-17T03:01:47;2.88;;;2.50;;
31114;SDS011;17764;47.152;9.828;2022-07-17T03:04:13;2.88;;;2.25;;
31114;SDS011;17764;47.152;9.828;2022-07-17T03:06:39;2.10;;;1.90;;
31114;SDS011;17764;47.152;9.828;2022-07-17T03:09:05;2.53;;;2.10;;
31114;SDS011;17764;47.152;9.828;2022-07-17T03:11:31;2.40;;;2.08;;
31114;SDS011;17764;47.152;9.828;2022-07-17T03:13:57;3.20;;;2.35;;
31114;SDS011;17764;47.152;9.828;2022-07-17T03:16:23;2.72;;;1.92;;
31114;SDS011;17764;47.152;9.828;2022-07-17T03:18:49;2.78;;;2.22;;
31114;SDS011;17764;47.152;9.828;2022-07-17T03:21:15;3.05;;;2.40;;
31114;SDS011;17764;47.152;9.828;2022-07-17T03:23:41;5.38;;;2.80;;
31114;SDS011;17764;47.152;9.828;2022-07-17T03:26:07;2.90;;;2.33;;
31114;SDS011;17764;47.152;9.828;2022-07-17T03:28:33;2.83;;;2.50;;
31114;SDS011;17764;47.152;9.828;2022-07-17T03:30:59;3.63;;;2.60;;
31114;SDS011;17764;47.152;9.828;2022-07-17T03:33:25;3.47;;;2.67;;
31114;SDS011;17764;47.152;9.828;2022-07-17T03:35:51;4.10;;;2.28;;
31114;SDS011;17764;47.152;9.828;2022-07-17T03:38:17;3.50;;;2.40;;
31114;SDS011;17764;47.152;9.828;2022-07-17T03:40:43;2.92;;;2.60;;
31114;SDS011;17764;47.152;9.828;2022-07-17T03:43:09;2.95;;;2.30;;
31114;SDS011;17764;47.152;9.828;2022-07-17T03:45:35;3.42;;;2.53;;
31114;SDS011;17764;47.152;9.828;2022-07-17T03:48:01;2.58;;;2.35;;
31114;SDS011;17764;47.152;9.828;2022-07-17T03:50:27;2.33;;;2.13;;
31114;SDS011;17764;47.152;9.828;2022-07-17T03:52:53;3.50;;;2.33;;
31114;SDS011;17764;47.152;9.828;2022-07-17T03:55:19;2.00;;;1.75;;
31114;SDS011;17764;47.152;9.828;2022-07-17T03:57:45;2.63;;;2.15;;
31114;SDS011;17764;47.152;9.828;2022-07-17T04:00:11;2.55;;;2.20;;
31114;SDS011;17764;47.152;9.828;2022-07-17T04:02:37;3.20;;;2.20;;
31114;SDS011;17764;47.152;9.828;2022-07-17T04:05:04;3.70;;;2.20;;
31114;SDS011;17764;47.152;9.828;2022-07-17T04:07:34;2.33;;;2.13;;
31114;SDS011;17764;47.152;9.828;2022-07-17T04:10:00;3.33;;;2.50;;
31114;SDS011;17764;47.152;9.828;2022-07-17T04:12:26;3.67;;;2.38;;
31114;SDS011;17764;47.152;9.828;2022-07-17T04:14:52;2.60;;;2.38;;
31114;SDS011;17764;47.152;9.828;2022-07-17T04:17:18;5.55;;;2.72;;
31114;SDS011;17764;47.152;9.828;2022-07-17T04:19:44;2.58;;;2.38;;
31114;SDS011;17764;47.152;9.828;2022-07-17T04:22:11;2.88;;;2.58;;
31114;SDS011;17764;47.152;9.828;2022-07-17T04:24:37;3.55;;;2.58;;
31114;SDS011;17764;47.152;9.828;2022-07-17T04:27:04;5.55;;;2.45;;
31114;SDS011;17764;47.152;9.828;2022-07-17T04:29:30;3.55;;;2.60;;
31114;SDS011;17764;47.152;9.828;2022-07-17T04:31:56;2.72;;;2.17;;
31114;SDS011;17764;47.152;9.828;2022-07-17T04:34:22;2.58;;;2.35;;
31114;SDS011;17764;47.152;9.828;2022-07-17T04:36:48;2.30;;;2.10;;
31114;SDS011;17764;47.152;9.828;2022-07-17T04:39:14;2.88;;;2.17;;
31114;SDS011;17764;47.152;9.828;2022-07-17T04:41:40;2.67;;;2.20;;
31114;SDS011;17764;47.152;9.828;2022-07-17T04:44:06;2.75;;;2.50;;
31114;SDS011;17764;47.152;9.828;2022-07-17T04:46:32;3.08;;;2.38;;
31114;SDS011;17764;47.152;9.828;2022-07-17T04:48:58;3.13;;;2.55;;
31114;SDS011;17764;47.152;9.828;2022-07-17T04:51:24;3.17;;;2.47;;
31114;SDS011;17764;47.152;9.828;2022-07-17T04:53:50;2.97;;;2.55;;
31114;SDS011;17764;47.152;9.828;2022-07-17T04:56:16;3.88;;;2.50;;
31114;SDS011;17764;47.152;9.828;2022-07-17T04:58:42;2.70;;;2.45;;
31114;SDS011;17764;47.152;9.828;2022-07-17T05:01:08;2.95;;;2.40;;
31114;SDS011;17764;47.152;9.828;2022-07-17T05:03:34;2.53;;;2.33;;
31114;SDS011;17764;47.152;9.828;2022-07-17T05:06:02;2.38;;;2.13;;
31114;SDS011;17764;47.152;9.828;2022-07-17T05:08:28;3.92;;;2.67;;
31114;SDS011;17764;47.152;9.828;2022-07-17T05:10:54;4.15;;;2.55;;
31114;SDS011;17764;47.152;9.828;2022-07-17T05:13:20;4.03;;;2.50;;
31114;SDS011;17764;47.152;9.828;2022-07-17T05:15:46;4.00;;;2.75;;
31114;SDS011;17764;47.152;9.828;2022-07-17T05:18:14;3.08;;;2.70;;
31114;SDS011;17764;47.152;9.828;2022-07-17T05:20:40;4.00;;;3.00;;
31114;SDS011;17764;47.152;9.828;2022-07-17T05:23:06;3.38;;;3.00;;
31114;SDS011;17764;47.152;9.828;2022-07-17T05:25:32;3.70;;;3.00;;
31114;SDS011;17764;47.152;9.828;2022-07-17T05:27:58;4.03;;;2.58;;
31114;SDS011;17764;47.152;9.828;2022-07-17T05:30:24;3.50;;;2.63;;
31114;SDS011;17764;47.152;9.828;2022-07-17T05:32:50;3.03;;;2.72;;
31114;SDS011;17764;47.152;9.828;2022-07-17T05:35:16;3.97;;;2.85;;
31114;SDS011;17764;47.152;9.828;2022-07-17T05:37:43;3.78;;;2.85;;
31114;SDS011;17764;47.152;9.828;2022-07-17T05:40:09;3.78;;;2.80;;
31114;SDS011;17764;47.152;9.828;2022-07-17T05:42:35;3.60;;;3.20;;
31114;SDS011;17764;47.152;9.828;2022-07-17T05:45:01;4.03;;;2.80;;
31114;SDS011;17764;47.152;9.828;2022-07-17T05:47:27;4.18;;;3.00;;
31114;SDS011;17764;47.152;9.828;2022-07-17T05:49:53;3.38;;;2.80;;
31114;SDS011;17764;47.152;9.828;2022-07-17T05:52:19;8.20;;;3.20;;
31114;SDS011;17764;47.152;9.828;2022-07-17T05:54:45;3.70;;;3.13;;
31114;SDS011;17764;47.152;9.828;2022-07-17T05:57:11;3.42;;;3.13;;
31114;SDS011;17764;47.152;9.828;2022-07-17T05:59:37;3.45;;;3.15;;
31114;SDS011;17764;47.152;9.828;2022-07-17T06:02:03;4.60;;;3.15;;
31114;SDS011;17764;47.152;9.828;2022-07-17T06:04:29;4.38;;;3.20;;
31114;SDS011;17764;47.152;9.828;2022-07-17T06:06:55;3.83;;;3.17;;
31114;SDS011;17764;47.152;9.828;2022-07-17T06:09:21;3.85;;;3.08;;
31114;SDS011;17764;47.152;9.828;2022-07-17T06:11:47;3.55;;;2.88;;
31114;SDS011;17764;47.152;9.828;2022-07-17T06:14:13;3.15;;;2.85;;
31114;SDS011;17764;47.152;9.828;2022-07-17T06:16:39;4.75;;;3.65;;
31114;SDS011;17764;47.152;9.828;2022-07-17T06:19:05;3.10;;;2.80;;
31114;SDS011;17764;47.152;9.828;2022-07-17T06:21:31;4.93;;;3.10;;
31114;SDS011;17764;47.152;9.828;2022-07-17T06:23:58;2.90;;;2.63;;
31114;SDS011;17764;47.152;9.828;2022-07-17T06:26:24;3.50;;;3.20;;
31114;SDS011;17764;47.152;9.828;2022-07-17T06:28:50;3.08;;;2.88;;
31114;SDS011;17764;47.152;9.828;2022-07-17T06:31:16;3.67;;;2.90;;
31114;SDS011;17764;47.152;9.828;2022-07-17T06:33:43;3.72;;;2.78;;
31114;SDS011;17764;47.152;9.828;2022-07-17T06:36:09;4.03;;;2.67;;
31114;SDS011;17764;47.152;9.828;2022-07-17T06:38:35;5.30;;;3.10;;
31114;SDS011;17764;47.152;9.828;2022-07-17T06:41:01;5.70;;;3.00;;
31114;SDS011;17764;47.152;9.828;2022-07-17T06:43:27;4.10;;;2.90;;
31114;SDS011;17764;47.152;9.828;2022-07-17T06:45:53;3.38;;;3.08;;
31114;SDS011;17764;47.152;9.828;2022-07-17T06:48:20;3.30;;;3.00;;
31114;SDS011;17764;47.152;9.828;2022-07-17T06:50:46;3.92;;;3.17;;
31114;SDS011;17764;47.152;9.828;2022-07-17T06:53:13;3.15;;;2.85;;
31114;SDS011;17764;47.152;9.828;2022-07-17T06:55:39;3.55;;;3.05;;
31114;SDS011;17764;47.152;9.828;2022-07-17T06:58:05;3.45;;;3.15;;
31114;SDS011;17764;47.152;9.828;2022-07-17T07:00:32;3.53;;;3.10;;
31114;SDS011;17764;47.152;9.828;2022-07-17T07:02:58;2.97;;;2.60;;
31114;SDS011;17764;47.152;9.828;2022-07-17T07:05:24;3.30;;;2.83;;
31114;SDS011;17764;47.152;9.828;2022-07-17T07:07:50;4.53;;;2.67;;
31114;SDS011;17764;47.152;9.828;2022-07-17T07:10:16;3.00;;;2.70;;
31114;SDS011;17764;47.152;9.828;2022-07-17T07:12:42;2.60;;;2.40;;
31114;SDS011;17764;47.152;9.828;2022-07-17T07:15:08;3.97;;;2.90;;
31114;SDS011;17764;47.152;9.828;2022-07-17T07:17:35;2.88;;;2.60;;
31114;SDS011;17764;47.152;9.828;2022-07-17T07:20:01;4.18;;;2.55;;
31114;SDS011;17764;47.152;9.828;2022-07-17T07:22:29;3.15;;;2.47;;
31114;SDS011;17764;47.152;9.828;2022-07-17T07:24:55;4.53;;;3.00;;
31114;SDS011;17764;47.152;9.828;2022-07-17T07:27:21;2.95;;;2.70;;
31114;SDS011;17764;47.152;9.828;2022-07-17T07:29:47;4.18;;;2.67;;
31114;SDS011;17764;47.152;9.828;2022-07-17T07:32:13;2.95;;;2.67;;
31114;SDS011;17764;47.152;9.828;2022-07-17T07:34:39;4.05;;;2.35;;
31114;SDS011;17764;47.152;9.828;2022-07-17T07:37:05;3.55;;;2.80;;
31114;SDS011;17764;47.152;9.828;2022-07-17T07:39:31;4.55;;;2.53;;
31114;SDS011;17764;47.152;9.828;2022-07-17T07:41:57;6.35;;;2.70;;
31114;SDS011;17764;47.152;9.828;2022-07-17T07:44:24;3.53;;;2.58;;
31114;SDS011;17764;47.152;9.828;2022-07-17T07:46:50;4.50;;;2.90;;
31114;SDS011;17764;47.152;9.828;2022-07-17T07:49:16;3.30;;;2.97;;
31114;SDS011;17764;47.152;9.828;2022-07-17T07:51:42;3.85;;;2.80;;
31114;SDS011;17764;47.152;9.828;2022-07-17T07:54:08;3.08;;;2.78;;
31114;SDS011;17764;47.152;9.828;2022-07-17T07:56:34;3.72;;;3.08;;
31114;SDS011;17764;47.152;9.828;2022-07-17T07:59:01;3.05;;;2.67;;
31114;SDS011;17764;47.152;9.828;2022-07-17T08:01:27;2.83;;;2.63;;
31114;SDS011;17764;47.152;9.828;2022-07-17T08:03:53;3.58;;;3.28;;
31114;SDS011;17764;47.152;9.828;2022-07-17T08:06:19;3.40;;;3.10;;
31114;SDS011;17764;47.152;9.828;2022-07-17T08:08:45;6.40;;;3.38;;
31114;SDS011;17764;47.152;9.828;2022-07-17T08:11:11;4.70;;;3.42;;
31114;SDS011;17764;47.152;9.828;2022-07-17T08:13:37;3.95;;;2.70;;
31114;SDS011;17764;47.152;9.828;2022-07-17T08:16:04;6.53;;;3.25;;
31114;SDS011;17764;47.152;9.828;2022-07-17T08:18:30;5.68;;;3.20;;
31114;SDS011;17764;47.152;9.828;2022-07-17T08:20:56;5.40;;;3.03;;
31114;SDS011;17764;47.152;9.828;2022-07-17T08:23:22;3.40;;;3.10;;
31114;SDS011;17764;47.152;9.828;2022-07-17T08:25:48;3.75;;;2.88;;
31114;SDS011;17764;47.152;9.828;2022-07-17T08:28:14;4.13;;;2.72;;
31114;SDS011;17764;47.152;9.828;2022-07-17T08:30:40;2.97;;;2.40;;
31114;SDS011;17764;47.152;9.828;2022-07-17T08:33:06;4.85;;;2.65;;
31114;SDS011;17764;47.152;9.828;2022-07-17T08:35:33;2.55;;;2.35;;
31114;SDS011;17764;47.152;9.828;2022-07-17T08:38:00;3.75;;;2.53;;
31114;SDS011;17764;47.152;9.828;2022-07-17T08:40:27;3.05;;;2.30;;
31114;SDS011;17764;47.152;9.828;2022-07-17T08:42:58;3.78;;;2.83;;
31114;SDS011;17764;47.152;9.828;2022-07-17T08:45:25;3.65;;;2.90;;
31114;SDS011;17764;47.152;9.828;2022-07-17T08:47:51;3.65;;;2.70;;
31114;SDS011;17764;47.152;9.828;2022-07-17T08:50:29;2.60;;;2.40;;
31114;SDS011;17764;47.152;9.828;2022-07-17T08:52:56;3.25;;;2.15;;
31114;SDS011;17764;47.152;9.828;2022-07-17T08:55:22;2.65;;;2.38;;
31114;SDS011;17764;47.152;9.828;2022-07-17T08:57:49;3.30;;;2.67;;
31114;SDS011;17764;47.152;9.828;2022-07-17T09:00:16;3.45;;;2.60;;
31114;SDS011;17764;47.152;9.828;2022-07-17T09:03:06;3.38;;;2.83;;
31114;SDS011;17764;47.152;9.828;2022-07-17T09:05:37;3.65;;;2.50;;
31114;SDS011;17764;47.152;9.828;2022-07-17T09:08:04;2.50;;;2.30;;
31114;SDS011;17764;47.152;9.828;2022-07-17T09:10:32;2.83;;;2.60;;
31114;SDS011;17764;47.152;9.828;2022-07-17T09:13:00;2.95;;;2.65;;
31114;SDS011;17764;47.152;9.828;2022-07-17T09:15:26;3.28;;;2.70;;
31114;SDS011;17764;47.152;9.828;2022-07-17T09:17:53;3.17;;;2.45;;
31114;SDS011;17764;47.152;9.828;2022-07-17T09:20:20;3.65;;;2.80;;
31114;SDS011;17764;47.152;9.828;2022-07-17T09:23:01;5.13;;;2.72;;
31114;SDS011;17764;47.152;9.828;2022-07-17T09:25:31;4.50;;;3.00;;
31114;SDS011;17764;47.152;9.828;2022-07-17T09:28:00;2.90;;;2.60;;
31114;SDS011;17764;47.152;9.828;2022-07-17T09:30:28;4.13;;;2.92;;
31114;SDS011;17764;47.152;9.828;2022-07-17T09:32:54;2.95;;;2.53;;
31114;SDS011;17764;47.152;9.828;2022-07-17T09:35:21;2.67;;;2.47;;
31114;SDS011;17764;47.152;9.828;2022-07-17T09:37:50;4.05;;;2.70;;
31114;SDS011;17764;47.152;9.828;2022-07-17T09:40:16;4.30;;;2.88;;
31114;SDS011;17764;47.152;9.828;2022-07-17T09:43:01;4.45;;;2.63;;
31114;SDS011;17764;47.152;9.828;2022-07-17T09:45:27;3.30;;;2.50;;
31114;SDS011;17764;47.152;9.828;2022-07-17T09:47:54;3.30;;;2.70;;
31114;SDS011;17764;47.152;9.828;2022-07-17T09:50:20;3.05;;;2.50;;
31114;SDS011;17764;47.152;9.828;2022-07-17T09:52:46;2.60;;;2.17;;
31114;SDS011;17764;47.152;9.828;2022-07-17T09:55:14;3.65;;;2.30;;
31114;SDS011;17764;47.152;9.828;2022-07-17T09:57:42;4.32;;;2.75;;
31114;SDS011;17764;47.152;9.828;2022-07-17T10:00:10;3.53;;;2.50;;
31114;SDS011;17764;47.152;9.828;2022-07-17T10:02:39;3.30;;;2.60;;
31114;SDS011;17764;47.152;9.828;2022-07-17T10:05:06;4.60;;;2.30;;
31114;SDS011;17764;47.152;9.828;2022-07-17T10:07:34;2.95;;;2.35;;
31114;SDS011;17764;47.152;9.828;2022-07-17T10:10:00;3.05;;;2.75;;
31114;SDS011;17764;47.152;9.828;2022-07-17T10:12:27;3.50;;;2.67;;
31114;SDS011;17764;47.152;9.828;2022-07-17T10:14:53;3.35;;;2.40;;
31114;SDS011;17764;47.152;9.828;2022-07-17T10:17:20;2.70;;;2.50;;
31114;SDS011;17764;47.152;9.828;2022-07-17T10:19:49;3.17;;;2.67;;
31114;SDS011;17764;47.152;9.828;2022-07-17T10:22:18;2.97;;;2.67;;
31114;SDS011;17764;47.152;9.828;2022-07-17T10:24:49;3.65;;;2.50;;
31114;SDS011;17764;47.152;9.828;2022-07-17T10:27:19;4.75;;;2.53;;
31114;SDS011;17764;47.152;9.828;2022-07-17T10:30:03;2.60;;;2.30;;
31114;SDS011;17764;47.152;9.828;2022-07-17T10:32:30;3.42;;;2.53;;
31114;SDS011;17764;47.152;9.828;2022-07-17T10:35:00;3.85;;;2.60;;
31114;SDS011;17764;47.152;9.828;2022-07-17T10:50:11;2.30;;;2.10;;
31114;SDS011;17764;47.152;9.828;2022-07-17T10:52:38;5.50;;;2.72;;
31114;SDS011;17764;47.152;9.828;2022-07-17T10:55:04;3.95;;;2.30;;
31114;SDS011;17764;47.152;9.828;2022-07-17T10:57:31;3.67;;;2.67;;
31114;SDS011;17764;47.152;9.828;2022-07-17T10:59:57;3.35;;;2.67;;
31114;SDS011;17764;47.152;9.828;2022-07-17T11:02:27;3.40;;;2.33;;
31114;SDS011;17764;47.152;9.828;2022-07-17T11:04:53;4.10;;;2.72;;
31114;SDS011;17764;47.152;9.828;2022-07-17T11:07:19;5.00;;;2.63;;
31114;SDS011;17764;47.152;9.828;2022-07-17T11:09:48;2.40;;;2.10;;
31114;SDS011;17764;47.152;9.828;2022-07-17T11:12:14;3.38;;;2.38;;
31114;SDS011;17764;47.152;9.828;2022-07-17T11:14:42;3.38;;;2.38;;
31114;SDS011;17764;47.152;9.828;2022-07-17T11:17:08;3.78;;;2.30;;
31114;SDS011;17764;47.152;9.828;2022-07-17T11:19:35;3.47;;;2.33;;
31114;SDS011;17764;47.152;9.828;2022-07-17T11:22:09;3.13;;;2.30;;
31114;SDS011;17764;47.152;9.828;2022-07-17T11:24:43;2.38;;;2.15;;
31114;SDS011;17764;47.152;9.828;2022-07-17T11:27:11;3.15;;;2.85;;
31114;SDS011;17764;47.152;9.828;2022-07-17T11:29:43;4.40;;;2.50;;
31114;SDS011;17764;47.152;9.828;2022-07-17T11:32:09;2.38;;;2.15;;
31114;SDS011;17764;47.152;9.828;2022-07-17T11:34:35;3.53;;;1.90;;
31114;SDS011;17764;47.152;9.828;2022-07-17T11:37:02;6.55;;;2.35;;
31114;SDS011;17764;47.152;9.828;2022-07-17T11:42:08;3.15;;;2.17;;
31114;SDS011;17764;47.152;9.828;2022-07-17T11:44:40;3.00;;;2.65;;
31114;SDS011;17764;47.152;9.828;2022-07-17T11:47:07;3.38;;;2.33;;
31114;SDS011;17764;47.152;9.828;2022-07-17T11:49:34;3.42;;;2.17;;
31114;SDS011;17764;47.152;9.828;2022-07-17T11:52:08;3.45;;;2.20;;
31114;SDS011;17764;47.152;9.828;2022-07-17T11:54:45;3.00;;;2.15;;
31114;SDS011;17764;47.152;9.828;2022-07-17T11:57:11;2.45;;;2.22;;
31114;SDS011;17764;47.152;9.828;2022-07-17T11:59:37;2.15;;;1.95;;
31114;SDS011;17764;47.152;9.828;2022-07-17T12:02:11;3.00;;;2.20;;
31114;SDS011;17764;47.152;9.828;2022-07-17T12:04:59;2.95;;;2.30;;
31114;SDS011;17764;47.152;9.828;2022-07-17T12:07:38;2.78;;;2.20;;
31114;SDS011;17764;47.152;9.828;2022-07-17T12:10:15;2.65;;;2.20;;
31114;SDS011;17764;47.152;9.828;2022-07-17T12:12:58;4.82;;;2.00;;
31114;SDS011;17764;47.152;9.828;2022-07-17T12:18:03;3.80;;;2.15;;
31114;SDS011;17764;47.152;9.828;2022-07-17T12:23:35;3.08;;;2.10;;
31114;SDS011;17764;47.152;9.828;2022-07-17T12:26:09;4.70;;;2.15;;
31114;SDS011;17764;47.152;9.828;2022-07-17T12:28:37;5.80;;;1.75;;
31114;SDS011;17764;47.152;9.828;2022-07-17T12:31:04;3.22;;;2.00;;
31114;SDS011;17764;47.152;9.828;2022-07-17T12:33:30;4.53;;;1.98;;
31114;SDS011;17764;47.152;9.828;2022-07-17T12:35:56;3.97;;;2.42;;
31114;SDS011;17764;47.152;9.828;2022-07-17T12:38:21;2.88;;;2.00;;
31114;SDS011;17764;47.152;9.828;2022-07-17T12:40:47;3.92;;;2.17;;
31114;SDS011;17764;47.152;9.828;2022-07-17T12:43:13;3.10;;;1.83;;
31114;SDS011;17764;47.152;9.828;2022-07-17T12:45:39;4.32;;;1.83;;
31114;SDS011;17764;47.152;9.828;2022-07-17T12:48:05;2.20;;;2.00;;
31114;SDS011;17764;47.152;9.828;2022-07-17T12:50:31;3.60;;;2.03;;
31114;SDS011;17764;47.152;9.828;2022-07-17T12:52:58;2.65;;;2.03;;
31114;SDS011;17764;47.152;9.828;2022-07-17T12:55:24;4.07;;;2.10;;
31114;SDS011;17764;47.152;9.828;2022-07-17T12:57:50;2.92;;;2.08;;
31114;SDS011;17764;47.152;9.828;2022-07-17T13:00:16;3.53;;;1.98;;
31114;SDS011;17764;47.152;9.828;2022-07-17T13:02:43;2.80;;;2.00;;
31114;SDS011;17764;47.152;9.828;2022-07-17T13:05:09;2.92;;;2.00;;
31114;SDS011;17764;47.152;9.828;2022-07-17T13:07:35;2.05;;;1.90;;
31114;SDS011;17764;47.152;9.828;2022-07-17T13:10:01;2.78;;;1.60;;
31114;SDS011;17764;47.152;9.828;2022-07-17T13:12:27;4.20;;;1.90;;
31114;SDS011;17764;47.152;9.828;2022-07-17T13:14:54;3.58;;;1.77;;
31114;SDS011;17764;47.152;9.828;2022-07-17T13:17:20;2.33;;;1.77;;
31114;SDS011;17764;47.152;9.828;2022-07-17T13:19:46;4.03;;;2.10;;
31114;SDS011;17764;47.152;9.828;2022-07-17T13:22:12;3.88;;;1.95;;
31114;SDS011;17764;47.152;9.828;2022-07-17T13:24:38;3.95;;;1.77;;
31114;SDS011;17764;47.152;9.828;2022-07-17T13:27:04;5.45;;;2.05;;
31114;SDS011;17764;47.152;9.828;2022-07-17T13:29:30;3.33;;;1.98;;
31114;SDS011;17764;47.152;9.828;2022-07-17T13:31:56;3.78;;;1.73;;
31114;SDS011;17764;47.152;9.828;2022-07-17T13:34:22;2.92;;;1.80;;
31114;SDS011;17764;47.152;9.828;2022-07-17T13:36:48;3.03;;;1.70;;
31114;SDS011;17764;47.152;9.828;2022-07-17T13:39:15;3.13;;;2.00;;
31114;SDS011;17764;47.152;9.828;2022-07-17T13:41:41;5.00;;;1.83;;
31114;SDS011;17764;47.152;9.828;2022-07-17T13:44:07;4.18;;;2.20;;
31114;SDS011;17764;47.152;9.828;2022-07-17T13:46:33;2.45;;;1.70;;
31114;SDS011;17764;47.152;9.828;2022-07-17T13:48:59;2.65;;;1.63;;
31114;SDS011;17764;47.152;9.828;2022-07-17T13:51:26;2.60;;;1.80;;
31114;SDS011;17764;47.152;9.828;2022-07-17T13:53:52;2.83;;;2.30;;
31114;SDS011;17764;47.152;9.828;2022-07-17T13:56:19;2.78;;;1.83;;
31114;SDS011;17764;47.152;9.828;2022-07-17T13:58:46;2.88;;;1.92;;
31114;SDS011;17764;47.152;9.828;2022-07-17T14:01:13;2.13;;;1.90;;
31114;SDS011;17764;47.152;9.828;2022-07-17T14:03:39;2.70;;;1.90;;
31114;SDS011;17764;47.152;9.828;2022-07-17T14:06:05;4.38;;;2.10;;
31114;SDS011;17764;47.152;9.828;2022-07-17T14:08:31;2.38;;;1.80;;
31114;SDS011;17764;47.152;9.828;2022-07-17T14:10:57;2.75;;;2.03;;
31114;SDS011;17764;47.152;9.828;2022-07-17T14:13:23;2.78;;;1.80;;
31114;SDS011;17764;47.152;9.828;2022-07-17T14:15:50;1.85;;;1.65;;
31114;SDS011;17764;47.152;9.828;2022-07-17T14:18:16;4.43;;;2.08;;
31114;SDS011;17764;47.152;9.828;2022-07-17T14:20:42;3.85;;;1.80;;
31114;SDS011;17764;47.152;9.828;2022-07-17T14:23:08;3.28;;;1.90;;
31114;SDS011;17764;47.152;9.828;2022-07-17T14:25:34;2.90;;;1.90;;
31114;SDS011;17764;47.152;9.828;2022-07-17T14:28:00;3.28;;;2.03;;
31114;SDS011;17764;47.152;9.828;2022-07-17T14:30:26;2.78;;;2.10;;
31114;SDS011;17764;47.152;9.828;2022-07-17T14:35:28;4.18;;;2.40;;
31114;SDS011;17764;47.152;9.828;2022-07-17T14:37:56;7.35;;;2.33;;
31114;SDS011;17764;47.152;9.828;2022-07-17T14:40:22;2.35;;;1.98;;
31114;SDS011;17764;47.152;9.828;2022-07-17T14:42:48;2.35;;;2.15;;
31114;SDS011;17764;47.152;9.828;2022-07-17T14:45:14;4.95;;;2.13;;
31114;SDS011;17764;47.152;9.828;2022-07-17T14:47:40;2.55;;;2.00;;
31114;SDS011;17764;47.152;9.828;2022-07-17T14:50:07;2.33;;;1.67;;
31114;SDS011;17764;47.152;9.828;2022-07-17T14:52:33;2.85;;;2.00;;
31114;SDS011;17764;47.152;9.828;2022-07-17T14:55:00;2.13;;;1.88;;
31114;SDS011;17764;47.152;9.828;2022-07-17T14:57:26;3.20;;;2.17;;
31114;SDS011;17764;47.152;9.828;2022-07-17T14:59:52;2.45;;;2.08;;
31114;SDS011;17764;47.152;9.828;2022-07-17T15:02:18;6.88;;;2.30;;
31114;SDS011;17764;47.152;9.828;2022-07-17T15:04:44;2.40;;;2.00;;
31114;SDS011;17764;47.152;9.828;2022-07-17T15:07:10;3.13;;;1.90;;
31114;SDS011;17764;47.152;9.828;2022-07-17T15:09:36;2.92;;;1.77;;